sensor_id;sensor_type;location;lat;lon;timestamp;P1;P2;P0
72509;PMS5003;60532;56.114;40.350;2023-03-14T00:01:39;11.50;9.00;4.00
72509;PMS5003;60532;56.114;40.350;2023-03-14T00:03:40;4.50;4.50;3.00
72509;PMS5003;60532;56.114;40.350;2023-03-14T00:05:41;6.00;5.50;3.00
72509;PMS5003;60532;56.114;40.350;2023-03-14T00:08:00;10.00;8.20;4.00
72509;PMS5003;60532;56.114;40.350;2023-03-14T00:10:19;9.40;9.40;5.60
72509;PMS5003;60532;56.114;40.350;2023-03-14T00:12:39;7.80;6.00;3.00
72509;PMS5003;60532;56.114;40.350;2023-03-14T00:14:58;8.20;6.20;3.80
72509;PMS5003;60532;56.114;40.350;2023-03-14T00:17:19;10.40;9.00;4.00
72509;PMS5003;60532;56.114;40.350;2023-03-14T00:19:38;6.20;4.80;3.20
72509;PMS5003;60532;56.114;40.350;2023-03-14T00:21:57;8.80;6.00;3.40
72509;PMS5003;60532;56.114;40.350;2023-03-14T00:24:16;7.20;7.20;4.00
72509;PMS5003;60532;56.114;40.350;2023-03-14T00:26:35;7.40;6.00;3.80
72509;PMS5003;60532;56.114;40.350;2023-03-14T00:28:54;6.00;5.60;3.80
72509;PMS5003;60532;56.114;40.350;2023-03-14T00:31:14;7.80;6.00;3.00
72509;PMS5003;60532;56.114;40.350;2023-03-14T00:33:34;7.00;7.00;3.00
72509;PMS5003;60532;56.114;40.350;2023-03-14T00:35:57;9.20;6.20;3.80
72509;PMS5003;60532;56.114;40.350;2023-03-14T00:38:17;4.80;3.80;3.00
72509;PMS5003;60532;56.114;40.350;2023-03-14T00:40:38;7.00;7.00;3.00
72509;PMS5003;60532;56.114;40.350;2023-03-14T00:42:58;9.60;7.00;3.00
72509;PMS5003;60532;56.114;40.350;2023-03-14T00:45:17;9.40;6.60;3.00
72509;PMS5003;60532;56.114;40.350;2023-03-14T00:47:36;2.20;2.20;1.00
72509;PMS5003;60532;56.114;40.350;2023-03-14T00:49:55;6.40;4.00;3.00
72509;PMS5003;60532;56.114;40.350;2023-03-14T00:52:14;3.40;3.40;1.40
72509;PMS5003;60532;56.114;40.350;2023-03-14T00:54:15;4.75;3.25;3.00
72509;PMS5003;60532;56.114;40.350;2023-03-14T00:56:15;7.00;5.50;3.00
72509;PMS5003;60532;56.114;40.350;2023-03-14T00:58:16;10.75;7.00;3.50
72509;PMS5003;60532;56.114;40.350;2023-03-14T01:00:17;3.00;1.00;0.00
72509;PMS5003;60532;56.114;40.350;2023-03-14T01:02:18;4.00;4.00;1.00
72509;PMS5003;60532;56.114;40.350;2023-03-14T01:04:18;4.00;1.00;0.50
72509;PMS5003;60532;56.114;40.350;2023-03-14T01:06:23;3.50;3.50;2.00
72509;PMS5003;60532;56.114;40.350;2023-03-14T01:08:24;8.40;4.60;2.20
72509;PMS5003;60532;56.114;40.350;2023-03-14T01:10:24;9.00;7.00;3.50
72509;PMS5003;60532;56.114;40.350;2023-03-14T01:12:43;3.80;3.80;1.00
72509;PMS5003;60532;56.114;40.350;2023-03-14T01:14:44;7.50;6.00;3.00
72509;PMS5003;60532;56.114;40.350;2023-03-14T01:16:44;6.75;3.75;0.50
72509;PMS5003;60532;56.114;40.350;2023-03-14T01:18:45;7.00;3.00;3.00
72509;PMS5003;60532;56.114;40.350;2023-03-14T01:20:46;4.40;3.00;1.00
72509;PMS5003;60532;56.114;40.350;2023-03-14T01:22:47;3.75;3.75;1.00
72509;PMS5003;60532;56.114;40.350;2023-03-14T01:24:47;5.50;3.00;0.75
72509;PMS5003;60532;56.114;40.350;2023-03-14T01:26:47;6.25;4.50;3.00
72509;PMS5003;60532;56.114;40.350;2023-03-14T01:28:49;6.00;4.00;1.00
72509;PMS5003;60532;56.114;40.350;2023-03-14T01:30:49;8.20;3.80;2.20
72509;PMS5003;60532;56.114;40.350;2023-03-14T01:32:50;6.00;3.25;1.00
72509;PMS5003;60532;56.114;40.350;2023-03-14T01:34:51;6.00;3.25;1.00
72509;PMS5003;60532;56.114;40.350;2023-03-14T01:37:10;3.00;3.00;1.00
72509;PMS5003;60532;56.114;40.350;2023-03-14T01:39:30;6.80;5.20;3.40
72509;PMS5003;60532;56.114;40.350;2023-03-14T01:41:31;1.00;1.00;1.00
72509;PMS5003;60532;56.114;40.350;2023-03-14T01:43:31;7.50;2.50;1.00
72509;PMS5003;60532;56.114;40.350;2023-03-14T01:47:50;3.20;3.00;1.00
72509;PMS5003;60532;56.114;40.350;2023-03-14T01:49:53;4.00;4.00;1.00
72509;PMS5003;60532;56.114;40.350;2023-03-14T01:54:08;1.00;0.00;0.00
72509;PMS5003;60532;56.114;40.350;2023-03-14T01:56:10;4.80;4.80;1.00
72509;PMS5003;60532;56.114;40.350;2023-03-14T01:58:12;6.00;5.60;1.80
72509;PMS5003;60532;56.114;40.350;2023-03-14T02:00:13;8.25;4.25;1.50
72509;PMS5003;60532;56.114;40.350;2023-03-14T02:02:14;7.40;4.40;3.00
72509;PMS5003;60532;56.114;40.350;2023-03-14T02:04:15;5.60;4.00;1.00
72509;PMS5003;60532;56.114;40.350;2023-03-14T02:06:18;6.40;4.40;3.00
72509;PMS5003;60532;56.114;40.350;2023-03-14T02:08:20;6.00;4.00;1.00
72509;PMS5003;60532;56.114;40.350;2023-03-14T02:10:22;4.80;3.00;1.80
72509;PMS5003;60532;56.114;40.350;2023-03-14T02:12:24;1.00;0.00;0.00
72509;PMS5003;60532;56.114;40.350;2023-03-14T02:14:27;4.50;4.50;3.25
72509;PMS5003;60532;56.114;40.350;2023-03-14T02:16:30;10.00;6.00;1.00
72509;PMS5003;60532;56.114;40.350;2023-03-14T02:18:30;6.75;3.00;0.00
72509;PMS5003;60532;56.114;40.350;2023-03-14T02:20:38;7.75;6.75;3.00
72509;PMS5003;60532;56.114;40.350;2023-03-14T02:22:42;4.00;4.00;3.00
72509;PMS5003;60532;56.114;40.350;2023-03-14T02:24:50;8.20;6.00;3.80
72509;PMS5003;60532;56.114;40.350;2023-03-14T02:27:11;6.00;4.80;3.40
72509;PMS5003;60532;56.114;40.350;2023-03-14T02:29:13;6.60;6.00;3.20
72509;PMS5003;60532;56.114;40.350;2023-03-14T02:31:13;7.75;6.00;3.25
72509;PMS5003;60532;56.114;40.350;2023-03-14T02:33:16;7.00;4.80;3.00
72509;PMS5003;60532;56.114;40.350;2023-03-14T02:35:21;8.20;4.80;3.00
72509;PMS5003;60532;56.114;40.350;2023-03-14T02:37:23;8.20;5.60;3.00
72509;PMS5003;60532;56.114;40.350;2023-03-14T02:39:26;5.60;5.60;3.20
72509;PMS5003;60532;56.114;40.350;2023-03-14T02:41:29;8.20;4.80;3.00
72509;PMS5003;60532;56.114;40.350;2023-03-14T02:43:30;9.50;9.50;3.75
72509;PMS5003;60532;56.114;40.350;2023-03-14T02:45:38;6.00;6.00;2.00
72509;PMS5003;60532;56.114;40.350;2023-03-14T02:47:41;6.80;4.80;3.00
72509;PMS5003;60532;56.114;40.350;2023-03-14T02:49:43;9.60;7.00;4.00
72509;PMS5003;60532;56.114;40.350;2023-03-14T02:51:43;4.00;4.00;4.00
72509;PMS5003;60532;56.114;40.350;2023-03-14T02:53:45;5.20;5.20;4.00
72509;PMS5003;60532;56.114;40.350;2023-03-14T02:55:46;12.75;11.00;4.00
72509;PMS5003;60532;56.114;40.350;2023-03-14T02:57:47;9.00;9.00;4.00
72509;PMS5003;60532;56.114;40.350;2023-03-14T02:59:48;13.75;8.50;3.75
72509;PMS5003;60532;56.114;40.350;2023-03-14T03:01:48;12.00;7.50;6.00
72509;PMS5003;60532;56.114;40.350;2023-03-14T03:03:49;10.50;4.50;1.00
72509;PMS5003;60532;56.114;40.350;2023-03-14T03:05:50;6.00;6.00;4.00
72509;PMS5003;60532;56.114;40.350;2023-03-14T03:07:50;15.00;7.80;6.00
72509;PMS5003;60532;56.114;40.350;2023-03-14T03:09:51;18.25;9.00;4.00
72509;PMS5003;60532;56.114;40.350;2023-03-14T03:11:51;10.00;7.00;4.00
72509;PMS5003;60532;56.114;40.350;2023-03-14T03:13:52;12.75;8.50;6.00
72509;PMS5003;60532;56.114;40.350;2023-03-14T03:15:52;10.50;9.00;4.00
72509;PMS5003;60532;56.114;40.350;2023-03-14T03:17:53;12.50;8.75;5.00
72509;PMS5003;60532;56.114;40.350;2023-03-14T03:19:54;10.00;9.00;5.00
72509;PMS5003;60532;56.114;40.350;2023-03-14T03:21:54;12.50;10.25;4.00
72509;PMS5003;60532;56.114;40.350;2023-03-14T03:23:55;11.50;10.00;4.00
72509;PMS5003;60532;56.114;40.350;2023-03-14T03:25:55;16.25;9.50;6.00
72509;PMS5003;60532;56.114;40.350;2023-03-14T03:27:56;15.25;10.50;6.50
72509;PMS5003;60532;56.114;40.350;2023-03-14T03:29:56;12.75;11.00;6.25
72509;PMS5003;60532;56.114;40.350;2023-03-14T03:31:57;11.00;9.50;6.00
72509;PMS5003;60532;56.114;40.350;2023-03-14T03:33:57;10.50;10.00;6.25
72509;PMS5003;60532;56.114;40.350;2023-03-14T03:35:58;7.50;7.00;4.00
72509;PMS5003;60532;56.114;40.350;2023-03-14T03:37:58;15.25;12.25;7.00
72509;PMS5003;60532;56.114;40.350;2023-03-14T03:39:59;10.25;6.75;5.50
72509;PMS5003;60532;56.114;40.350;2023-03-14T03:42:00;14.20;12.60;6.40
72509;PMS5003;60532;56.114;40.350;2023-03-14T03:44:01;7.00;7.00;3.00
72509;PMS5003;60532;56.114;40.350;2023-03-14T03:46:04;12.00;7.50;6.00
72509;PMS5003;60532;56.114;40.350;2023-03-14T03:48:05;16.20;10.80;6.00
72509;PMS5003;60532;56.114;40.350;2023-03-14T03:50:06;20.50;12.75;6.75
72509;PMS5003;60532;56.114;40.350;2023-03-14T03:52:06;12.75;8.25;4.00
72509;PMS5003;60532;56.114;40.350;2023-03-14T03:54:07;10.00;10.00;6.75
72509;PMS5003;60532;56.114;40.350;2023-03-14T03:56:08;14.75;11.25;6.00
72509;PMS5003;60532;56.114;40.350;2023-03-14T03:58:08;10.40;10.40;6.00
72509;PMS5003;60532;56.114;40.350;2023-03-14T04:00:09;10.75;8.50;5.00
72509;PMS5003;60532;56.114;40.350;2023-03-14T04:02:12;6.20;6.20;4.00
72509;PMS5003;60532;56.114;40.350;2023-03-14T04:04:12;12.00;9.00;6.00
72509;PMS5003;60532;56.114;40.350;2023-03-14T04:06:13;16.60;9.20;5.60
72509;PMS5003;60532;56.114;40.350;2023-03-14T04:08:14;10.50;8.50;4.50
72509;PMS5003;60532;56.114;40.350;2023-03-14T04:10:14;12.00;12.00;6.25
72509;PMS5003;60532;56.114;40.350;2023-03-14T04:12:15;9.00;9.00;5.00
72509;PMS5003;60532;56.114;40.350;2023-03-14T04:14:15;9.50;7.25;4.00
72509;PMS5003;60532;56.114;40.350;2023-03-14T04:16:17;14.25;12.00;6.75
72509;PMS5003;60532;56.114;40.350;2023-03-14T04:18:17;11.20;11.20;5.20
72509;PMS5003;60532;56.114;40.350;2023-03-14T04:20:18;10.50;9.00;4.00
72509;PMS5003;60532;56.114;40.350;2023-03-14T04:22:19;13.50;9.25;6.00
72509;PMS5003;60532;56.114;40.350;2023-03-14T04:24:19;10.00;8.50;4.50
72509;PMS5003;60532;56.114;40.350;2023-03-14T04:26:20;11.50;9.00;5.00
72509;PMS5003;60532;56.114;40.350;2023-03-14T04:28:20;9.75;9.75;6.75
72509;PMS5003;60532;56.114;40.350;2023-03-14T04:30:21;11.50;9.00;5.00
72509;PMS5003;60532;56.114;40.350;2023-03-14T04:32:22;12.00;9.60;6.00
72509;PMS5003;60532;56.114;40.350;2023-03-14T04:34:23;11.40;9.80;6.00
72509;PMS5003;60532;56.114;40.350;2023-03-14T04:36:23;14.50;9.50;5.50
72509;PMS5003;60532;56.114;40.350;2023-03-14T04:38:24;9.75;9.75;3.00
72509;PMS5003;60532;56.114;40.350;2023-03-14T04:40:24;17.00;12.00;6.25
72509;PMS5003;60532;56.114;40.350;2023-03-14T04:42:25;10.50;7.50;4.50
72509;PMS5003;60532;56.114;40.350;2023-03-14T04:44:25;12.25;8.50;6.00
72509;PMS5003;60532;56.114;40.350;2023-03-14T04:46:26;12.25;10.00;6.00
72509;PMS5003;60532;56.114;40.350;2023-03-14T04:48:27;19.75;9.00;4.50
72509;PMS5003;60532;56.114;40.350;2023-03-14T04:50:27;17.00;15.25;7.00
72509;PMS5003;60532;56.114;40.350;2023-03-14T04:52:28;17.00;12.50;6.00
72509;PMS5003;60532;56.114;40.350;2023-03-14T04:54:28;9.50;8.75;5.00
72509;PMS5003;60532;56.114;40.350;2023-03-14T04:56:29;7.00;7.00;4.00
72509;PMS5003;60532;56.114;40.350;2023-03-14T04:58:29;12.00;9.00;5.00
72509;PMS5003;60532;56.114;40.350;2023-03-14T05:00:29;8.50;8.50;6.00
72509;PMS5003;60532;56.114;40.350;2023-03-14T05:02:30;9.75;9.75;4.00
72509;PMS5003;60532;56.114;40.350;2023-03-14T05:04:30;7.50;7.50;3.00
72509;PMS5003;60532;56.114;40.350;2023-03-14T05:06:32;12.00;6.80;4.00
72509;PMS5003;60532;56.114;40.350;2023-03-14T05:08:33;5.00;5.00;3.75
72509;PMS5003;60532;56.114;40.350;2023-03-14T05:10:34;8.25;6.50;3.75
72509;PMS5003;60532;56.114;40.350;2023-03-14T05:12:34;11.50;6.75;4.00
72509;PMS5003;60532;56.114;40.350;2023-03-14T05:14:35;7.50;7.50;3.75
72509;PMS5003;60532;56.114;40.350;2023-03-14T05:16:35;11.00;7.50;4.00
72509;PMS5003;60532;56.114;40.350;2023-03-14T05:18:36;4.50;4.00;3.00
72509;PMS5003;60532;56.114;40.350;2023-03-14T05:20:36;9.00;5.50;4.00
72509;PMS5003;60532;56.114;40.350;2023-03-14T05:22:37;7.25;5.00;3.00
72509;PMS5003;60532;56.114;40.350;2023-03-14T05:24:37;12.00;8.00;3.00
72509;PMS5003;60532;56.114;40.350;2023-03-14T05:26:37;3.50;3.50;1.00
72509;PMS5003;60532;56.114;40.350;2023-03-14T05:28:38;8.25;4.25;2.50
72509;PMS5003;60532;56.114;40.350;2023-03-14T05:30:38;4.00;4.00;3.00
72509;PMS5003;60532;56.114;40.350;2023-03-14T05:32:39;6.50;4.00;3.00
72509;PMS5003;60532;56.114;40.350;2023-03-14T05:34:39;6.50;6.50;3.00
72509;PMS5003;60532;56.114;40.350;2023-03-14T05:36:40;9.50;6.00;2.00
72509;PMS5003;60532;56.114;40.350;2023-03-14T05:38:40;4.00;4.00;4.00
72509;PMS5003;60532;56.114;40.350;2023-03-14T05:40:41;6.50;6.50;3.00
72509;PMS5003;60532;56.114;40.350;2023-03-14T05:42:41;7.00;7.00;3.00
72509;PMS5003;60532;56.114;40.350;2023-03-14T05:44:42;7.00;7.00;3.25
72509;PMS5003;60532;56.114;40.350;2023-03-14T05:46:42;3.00;3.00;1.00
72509;PMS5003;60532;56.114;40.350;2023-03-14T05:48:43;4.00;4.00;2.50
72509;PMS5003;60532;56.114;40.350;2023-03-14T05:50:43;4.50;4.50;3.00
72509;PMS5003;60532;56.114;40.350;2023-03-14T05:52:44;4.50;4.50;3.00
72509;PMS5003;60532;56.114;40.350;2023-03-14T05:54:44;4.50;3.50;0.50
72509;PMS5003;60532;56.114;40.350;2023-03-14T05:56:45;9.00;4.00;3.00
72509;PMS5003;60532;56.114;40.350;2023-03-14T05:58:46;8.00;6.00;3.00
72509;PMS5003;60532;56.114;40.350;2023-03-14T06:00:46;5.00;5.00;1.00
72509;PMS5003;60532;56.114;40.350;2023-03-14T06:02:47;6.00;6.00;3.00
72509;PMS5003;60532;56.114;40.350;2023-03-14T06:04:47;8.50;6.50;3.00
72509;PMS5003;60532;56.114;40.350;2023-03-14T06:06:48;9.00;6.25;4.00
72509;PMS5003;60532;56.114;40.350;2023-03-14T06:08:48;6.50;6.25;3.00
72509;PMS5003;60532;56.114;40.350;2023-03-14T06:10:50;4.00;4.00;3.00
72509;PMS5003;60532;56.114;40.350;2023-03-14T06:12:50;3.75;3.50;1.00
72509;PMS5003;60532;56.114;40.350;2023-03-14T06:14:51;6.00;6.00;3.75
72509;PMS5003;60532;56.114;40.350;2023-03-14T06:16:51;4.75;4.00;3.00
72509;PMS5003;60532;56.114;40.350;2023-03-14T06:18:53;6.40;3.20;2.20
72509;PMS5003;60532;56.114;40.350;2023-03-14T06:20:54;4.00;1.50;1.00
72509;PMS5003;60532;56.114;40.350;2023-03-14T06:22:55;5.20;4.00;1.80
72509;PMS5003;60532;56.114;40.350;2023-03-14T06:24:55;10.25;6.25;3.00
72509;PMS5003;60532;56.114;40.350;2023-03-14T06:26:56;4.00;3.50;1.00
72509;PMS5003;60532;56.114;40.350;2023-03-14T06:28:56;6.75;3.75;1.00
72509;PMS5003;60532;56.114;40.350;2023-03-14T06:30:58;7.00;6.00;3.00
72509;PMS5003;60532;56.114;40.350;2023-03-14T06:32:59;0.60;0.00;0.00
72509;PMS5003;60532;56.114;40.350;2023-03-14T06:34:59;4.00;4.00;3.00
72509;PMS5003;60532;56.114;40.350;2023-03-14T06:37:01;6.80;6.80;3.80
72509;PMS5003;60532;56.114;40.350;2023-03-14T06:39:01;6.00;4.00;1.00
72509;PMS5003;60532;56.114;40.350;2023-03-14T06:41:05;6.50;5.00;3.00
72509;PMS5003;60532;56.114;40.350;2023-03-14T06:43:06;5.20;4.80;1.40
72509;PMS5003;60532;56.114;40.350;2023-03-14T06:45:06;4.50;4.50;3.25
72509;PMS5003;60532;56.114;40.350;2023-03-14T06:47:07;8.00;5.20;1.00
72509;PMS5003;60532;56.114;40.350;2023-03-14T06:49:07;4.50;3.25;2.00
72509;PMS5003;60532;56.114;40.350;2023-03-14T06:51:08;3.75;3.75;1.00
72509;PMS5003;60532;56.114;40.350;2023-03-14T06:53:08;3.25;3.25;1.00
72509;PMS5003;60532;56.114;40.350;2023-03-14T06:55:09;3.00;3.00;1.00
72509;PMS5003;60532;56.114;40.350;2023-03-14T06:57:09;4.50;4.50;3.00
72509;PMS5003;60532;56.114;40.350;2023-03-14T06:59:10;4.00;3.75;2.00
72509;PMS5003;60532;56.114;40.350;2023-03-14T07:01:17;10.00;5.00;3.00
72509;PMS5003;60532;56.114;40.350;2023-03-14T07:03:20;7.40;4.00;3.00
72509;PMS5003;60532;56.114;40.350;2023-03-14T07:05:21;4.50;4.00;0.25
72509;PMS5003;60532;56.114;40.350;2023-03-14T07:07:21;3.75;3.75;1.50
72509;PMS5003;60532;56.114;40.350;2023-03-14T07:09:22;4.75;3.25;1.00
72509;PMS5003;60532;56.114;40.350;2023-03-14T07:11:22;3.50;2.75;1.50
72509;PMS5003;60532;56.114;40.350;2023-03-14T07:13:23;6.25;4.00;1.50
72509;PMS5003;60532;56.114;40.350;2023-03-14T07:15:23;6.00;3.00;1.00
72509;PMS5003;60532;56.114;40.350;2023-03-14T07:17:24;4.00;4.00;3.00
72509;PMS5003;60532;56.114;40.350;2023-03-14T07:19:24;4.50;4.00;1.00
72509;PMS5003;60532;56.114;40.350;2023-03-14T07:21:25;4.00;3.00;1.00
72509;PMS5003;60532;56.114;40.350;2023-03-14T07:23:26;3.00;3.00;2.00
72509;PMS5003;60532;56.114;40.350;2023-03-14T07:25:26;6.00;6.00;2.50
72509;PMS5003;60532;56.114;40.350;2023-03-14T07:27:27;4.00;1.50;1.00
72509;PMS5003;60532;56.114;40.350;2023-03-14T07:29:27;4.50;3.00;1.00
72509;PMS5003;60532;56.114;40.350;2023-03-14T07:31:28;4.50;4.50;1.50
72509;PMS5003;60532;56.114;40.350;2023-03-14T07:33:28;8.50;2.00;1.50
72509;PMS5003;60532;56.114;40.350;2023-03-14T07:35:29;4.00;4.00;3.00
72509;PMS5003;60532;56.114;40.350;2023-03-14T07:37:29;8.00;6.50;3.00
72509;PMS5003;60532;56.114;40.350;2023-03-14T07:39:30;4.00;4.00;1.00
72509;PMS5003;60532;56.114;40.350;2023-03-14T07:41:30;4.00;4.00;1.00
72509;PMS5003;60532;56.114;40.350;2023-03-14T07:43:31;6.00;3.60;1.80
72509;PMS5003;60532;56.114;40.350;2023-03-14T07:45:32;6.00;3.80;1.40
72509;PMS5003;60532;56.114;40.350;2023-03-14T07:47:32;12.50;4.00;3.00
72509;PMS5003;60532;56.114;40.350;2023-03-14T07:49:33;11.25;6.00;3.00
72509;PMS5003;60532;56.114;40.350;2023-03-14T07:51:33;11.25;3.50;1.00
72509;PMS5003;60532;56.114;40.350;2023-03-14T07:53:34;7.00;2.50;0.75
72509;PMS5003;60532;56.114;40.350;2023-03-14T07:55:34;11.00;3.50;1.00
72509;PMS5003;60532;56.114;40.350;2023-03-14T07:57:35;6.00;6.00;2.50
72509;PMS5003;60532;56.114;40.350;2023-03-14T07:59:35;6.00;6.00;1.00
72509;PMS5003;60532;56.114;40.350;2023-03-14T08:01:36;9.50;4.50;1.00
72509;PMS5003;60532;56.114;40.350;2023-03-14T08:03:36;9.00;6.75;1.00
72509;PMS5003;60532;56.114;40.350;2023-03-14T08:05:37;4.00;4.00;3.00
72509;PMS5003;60532;56.114;40.350;2023-03-14T08:07:38;4.00;4.00;1.00
72509;PMS5003;60532;56.114;40.350;2023-03-14T08:09:38;3.00;3.00;1.00
72509;PMS5003;60532;56.114;40.350;2023-03-14T08:11:39;7.50;6.00;3.00
72509;PMS5003;60532;56.114;40.350;2023-03-14T08:13:39;6.25;3.25;3.00
72509;PMS5003;60532;56.114;40.350;2023-03-14T08:15:40;5.00;5.00;2.50
72509;PMS5003;60532;56.114;40.350;2023-03-14T08:17:40;6.50;4.00;3.00
72509;PMS5003;60532;56.114;40.350;2023-03-14T08:19:41;4.00;4.00;1.00
72509;PMS5003;60532;56.114;40.350;2023-03-14T08:21:41;4.50;4.00;1.00
72509;PMS5003;60532;56.114;40.350;2023-03-14T08:23:42;6.25;5.50;3.75
72509;PMS5003;60532;56.114;40.350;2023-03-14T08:25:42;3.25;3.00;2.50
72509;PMS5003;60532;56.114;40.350;2023-03-14T08:27:43;6.00;3.50;3.00
72509;PMS5003;60532;56.114;40.350;2023-03-14T08:29:43;6.00;1.50;0.50
72509;PMS5003;60532;56.114;40.350;2023-03-14T08:31:44;8.50;3.75;3.00
72509;PMS5003;60532;56.114;40.350;2023-03-14T08:33:45;9.25;4.00;3.00
72509;PMS5003;60532;56.114;40.350;2023-03-14T08:35:45;5.50;3.75;1.00
72509;PMS5003;60532;56.114;40.350;2023-03-14T08:37:45;0.00;0.00;0.00
72509;PMS5003;60532;56.114;40.350;2023-03-14T08:39:46;7.00;6.00;1.40
72509;PMS5003;60532;56.114;40.350;2023-03-14T08:41:49;3.75;3.75;1.00
72509;PMS5003;60532;56.114;40.350;2023-03-14T08:43:49;9.40;5.60;3.00
72509;PMS5003;60532;56.114;40.350;2023-03-14T08:45:49;13.25;6.50;3.00
72509;PMS5003;60532;56.114;40.350;2023-03-14T08:47:50;4.50;3.75;1.00
72509;PMS5003;60532;56.114;40.350;2023-03-14T08:49:51;6.00;6.00;2.50
72509;PMS5003;60532;56.114;40.350;2023-03-14T08:51:51;9.00;4.00;3.00
72509;PMS5003;60532;56.114;40.350;2023-03-14T08:53:51;4.50;4.50;2.50
72509;PMS5003;60532;56.114;40.350;2023-03-14T08:55:53;5.75;4.00;3.00
72509;PMS5003;60532;56.114;40.350;2023-03-14T08:57:54;7.80;5.20;1.80
72509;PMS5003;60532;56.114;40.350;2023-03-14T08:59:55;8.50;6.75;3.00
72509;PMS5003;60532;56.114;40.350;2023-03-14T09:01:55;4.00;4.00;4.00
72509;PMS5003;60532;56.114;40.350;2023-03-14T09:03:56;5.50;5.50;4.00
72509;PMS5003;60532;56.114;40.350;2023-03-14T09:06:00;9.75;4.00;3.00
72509;PMS5003;60532;56.114;40.350;2023-03-14T09:08:02;6.60;6.60;3.00
72509;PMS5003;60532;56.114;40.350;2023-03-14T09:10:03;9.00;8.25;3.50
72509;PMS5003;60532;56.114;40.350;2023-03-14T09:12:04;7.00;6.00;3.00
72509;PMS5003;60532;56.114;40.350;2023-03-14T09:14:05;7.80;6.80;3.00
72509;PMS5003;60532;56.114;40.350;2023-03-14T09:16:05;4.00;4.00;3.00
72509;PMS5003;60532;56.114;40.350;2023-03-14T09:18:06;9.67;4.00;3.00
72509;PMS5003;60532;56.114;40.350;2023-03-14T09:20:07;7.67;7.67;4.00
72509;PMS5003;60532;56.114;40.350;2023-03-14T09:22:09;7.00;6.75;3.00
72509;PMS5003;60532;56.114;40.350;2023-03-14T09:24:09;7.00;7.00;3.33
72509;PMS5003;60532;56.114;40.350;2023-03-14T09:26:10;4.67;4.00;3.00
72509;PMS5003;60532;56.114;40.350;2023-03-14T09:28:10;4.00;1.00;1.00
72509;PMS5003;60532;56.114;40.350;2023-03-14T09:30:11;10.33;7.00;3.33
72509;PMS5003;60532;56.114;40.350;2023-03-14T09:32:12;3.25;3.25;1.00
72509;PMS5003;60532;56.114;40.350;2023-03-14T09:34:12;7.00;4.00;1.67
72509;PMS5003;60532;56.114;40.350;2023-03-14T09:36:13;5.00;3.33;1.00
72509;PMS5003;60532;56.114;40.350;2023-03-14T09:38:13;6.67;4.00;3.67
72509;PMS5003;60532;56.114;40.350;2023-03-14T09:40:15;3.00;3.00;1.00
72509;PMS5003;60532;56.114;40.350;2023-03-14T09:42:20;7.00;4.75;2.50
72509;PMS5003;60532;56.114;40.350;2023-03-14T09:44:32;7.00;5.00;2.50
72509;PMS5003;60532;56.114;40.350;2023-03-14T09:46:33;3.25;3.25;2.00
72509;PMS5003;60532;56.114;40.350;2023-03-14T09:48:36;6.25;4.50;3.00
72509;PMS5003;60532;56.114;40.350;2023-03-14T09:50:37;10.00;6.00;3.00
72509;PMS5003;60532;56.114;40.350;2023-03-14T09:52:39;6.50;4.00;3.00
72509;PMS5003;60532;56.114;40.350;2023-03-14T09:56:45;10.50;5.00;3.00
72509;PMS5003;60532;56.114;40.350;2023-03-14T09:58:48;7.00;4.00;3.00
72509;PMS5003;60532;56.114;40.350;2023-03-14T10:00:51;5.00;4.00;1.00
72509;PMS5003;60532;56.114;40.350;2023-03-14T10:02:53;10.75;7.00;4.00
72509;PMS5003;60532;56.114;40.350;2023-03-14T10:04:54;12.00;6.75;3.25
72509;PMS5003;60532;56.114;40.350;2023-03-14T10:06:55;6.00;4.00;3.00
72509;PMS5003;60532;56.114;40.350;2023-03-14T10:08:55;4.33;3.67;3.00
72509;PMS5003;60532;56.114;40.350;2023-03-14T10:10:56;6.75;5.00;1.50
72509;PMS5003;60532;56.114;40.350;2023-03-14T10:15:11;7.75;4.50;3.00
72509;PMS5003;60532;56.114;40.350;2023-03-14T10:17:12;6.75;5.00;2.00
72509;PMS5003;60532;56.114;40.350;2023-03-14T10:19:14;5.50;5.50;3.00
72509;PMS5003;60532;56.114;40.350;2023-03-14T10:23:23;8.00;8.00;3.00
72509;PMS5003;60532;56.114;40.350;2023-03-14T10:25:26;9.50;6.25;3.00
72509;PMS5003;60532;56.114;40.350;2023-03-14T10:27:34;5.50;3.00;3.00
72509;PMS5003;60532;56.114;40.350;2023-03-14T10:29:34;8.50;6.50;3.50
72509;PMS5003;60532;56.114;40.350;2023-03-14T10:32:10;10.00;10.00;4.00
72509;PMS5003;60532;56.114;40.350;2023-03-14T10:34:17;10.00;6.00;3.00
72509;PMS5003;60532;56.114;40.350;2023-03-14T10:36:21;6.25;4.00;1.50
72509;PMS5003;60532;56.114;40.350;2023-03-14T10:38:24;9.00;4.50;3.00
72509;PMS5003;60532;56.114;40.350;2023-03-14T10:42:29;7.00;7.00;3.25
72509;PMS5003;60532;56.114;40.350;2023-03-14T10:44:34;6.50;5.50;1.50
72509;PMS5003;60532;56.114;40.350;2023-03-14T10:46:35;7.00;7.00;3.00
72509;PMS5003;60532;56.114;40.350;2023-03-14T10:48:36;12.00;7.00;3.00
72509;PMS5003;60532;56.114;40.350;2023-03-14T10:50:37;9.25;8.50;3.00
72509;PMS5003;60532;56.114;40.350;2023-03-14T10:52:38;8.33;6.33;4.00
72509;PMS5003;60532;56.114;40.350;2023-03-14T10:54:47;4.00;4.00;3.00
72509;PMS5003;60532;56.114;40.350;2023-03-14T10:56:58;10.75;7.00;3.00
72509;PMS5003;60532;56.114;40.350;2023-03-14T10:58:59;8.75;7.00;3.75
72509;PMS5003;60532;56.114;40.350;2023-03-14T11:01:08;10.33;8.33;4.67
72509;PMS5003;60532;56.114;40.350;2023-03-14T11:03:13;16.75;9.25;3.75
72509;PMS5003;60532;56.114;40.350;2023-03-14T11:07:40;8.00;6.75;4.50
72509;PMS5003;60532;56.114;40.350;2023-03-14T11:11:47;8.00;6.75;3.50
72509;PMS5003;60532;56.114;40.350;2023-03-14T11:20:29;3.00;3.00;1.00
72509;PMS5003;60532;56.114;40.350;2023-03-14T11:22:35;9.75;8.50;4.00
72509;PMS5003;60532;56.114;40.350;2023-03-14T11:27:00;6.25;3.50;0.00
72509;PMS5003;60532;56.114;40.350;2023-03-14T11:29:14;15.50;9.50;6.00
72509;PMS5003;60532;56.114;40.350;2023-03-14T11:33:31;11.25;10.75;6.50
72509;PMS5003;60532;56.114;40.350;2023-03-14T11:38:05;9.25;9.00;4.00
72509;PMS5003;60532;56.114;40.350;2023-03-14T11:42:16;16.00;11.00;5.50
72509;PMS5003;60532;56.114;40.350;2023-03-14T11:50:40;12.00;12.00;7.00
72509;PMS5003;60532;56.114;40.350;2023-03-14T11:54:47;10.75;10.75;7.00
72509;PMS5003;60532;56.114;40.350;2023-03-14T12:01:51;16.75;11.00;5.25
72509;PMS5003;60532;56.114;40.350;2023-03-14T12:03:57;16.00;14.00;8.00
72509;PMS5003;60532;56.114;40.350;2023-03-14T12:08:29;17.50;14.00;7.00
72509;PMS5003;60532;56.114;40.350;2023-03-14T12:12:37;16.75;13.00;7.00
72509;PMS5003;60532;56.114;40.350;2023-03-14T12:14:38;11.67;8.67;7.00
72509;PMS5003;60532;56.114;40.350;2023-03-14T12:16:45;18.25;13.00;5.25
72509;PMS5003;60532;56.114;40.350;2023-03-14T12:18:47;9.00;6.25;1.00
72509;PMS5003;60532;56.114;40.350;2023-03-14T12:20:51;12.33;10.00;5.67
72509;PMS5003;60532;56.114;40.350;2023-03-14T12:22:54;10.00;10.00;6.00
72509;PMS5003;60532;56.114;40.350;2023-03-14T12:27:05;16.00;14.00;6.50
72509;PMS5003;60532;56.114;40.350;2023-03-14T12:33:29;6.50;4.75;1.00
72509;PMS5003;60532;56.114;40.350;2023-03-14T12:35:34;12.50;7.50;2.00
72509;PMS5003;60532;56.114;40.350;2023-03-14T12:37:41;13.75;9.75;4.25
72509;PMS5003;60532;56.114;40.350;2023-03-14T12:46:38;11.25;10.25;6.00
72509;PMS5003;60532;56.114;40.350;2023-03-14T12:48:38;7.33;6.00;2.33
72509;PMS5003;60532;56.114;40.350;2023-03-14T12:50:43;12.75;10.00;5.00